METAR Data
IDs: Format: Raw Decoded Include TAF

Data at: 0223 UTC 24 Sep 2018

KPVW 240215Z AUTO 15005KT 10SM CLR 15/11 A2999 RMK AO2 T01530105
KPVW 240155Z AUTO 16005KT 10SM CLR 17/10 A2999 RMK AO2 T01680099
KPVW 240135Z AUTO 14005KT 10SM CLR 17/10 A2999 RMK AO2 T01710096
KPVW 240115Z AUTO 15005KT 10SM CLR 18/10 A2999 RMK AO2 T01810102
KPVW 240055Z AUTO 14006KT 10SM CLR 20/10 A2998 RMK AO2 T02000095
KPVW 240035Z AUTO 13005KT 10SM CLR 22/09 A2998 RMK AO2 T02150089
KPVW 240015Z AUTO 14005KT 10SM CLR 23/07 A2998 RMK AO2 T02330072
KPVW 232355Z AUTO 13004KT 10SM CLR 24/08 A2998 RMK AO2 T02440075 10264 20230
KPVW 232335Z AUTO 16004KT 10SM CLR 25/08 A2998 RMK AO2 T02510077
KPVW 232315Z AUTO 14003KT 10SM CLR 26/07 A2998 RMK AO2 T02550070
KPVW 232255Z AUTO 19005KT 10SM CLR 26/07 A2998 RMK AO2 T02570070
KPVW 232235Z AUTO 13003KT 10SM CLR 26/07 A2998 RMK AO2 T02610070
KPVW 232215Z AUTO 17005KT 10SM CLR 26/06 A2999 RMK AO2 T02610062
KPVW 232155Z AUTO 18005KT 10SM CLR 26/06 A2999 RMK AO2 T02630058
KPVW 232135Z AUTO 16003KT 10SM CLR 26/07 A2999 RMK AO2 T02610066
KPVW 232115Z AUTO 13006KT 10SM CLR 26/07 A3000 RMK AO2 T02610069
KPVW 232055Z AUTO 19003KT 10SM CLR 26/07 A3001 RMK AO2 T02570066
KPVW 232035Z AUTO 10007KT 10SM CLR 26/08 A3001 RMK AO2 T02610080
KPVW 232015Z AUTO 14005KT 10SM CLR 26/08 A3002 RMK AO2 T02590080
KPVW 231955Z AUTO 00000KT 10SM CLR 26/08 A3004 RMK AO2 T02570075
KPVW 231935Z AUTO 09005KT 4SM HZ CLR 25/07 A3004 RMK AO2 T02490072
KPVW 231915Z AUTO 17003KT 10SM CLR 24/08 A3005 RMK AO2 T02440080
KPVW 231855Z AUTO 11005KT 10SM CLR 25/09 A3006 RMK AO2 T02480090
KPVW 231835Z AUTO 00000KT 7SM CLR 24/09 A3007 RMK AO2 T02390085
KPVW 231815Z AUTO 36003KT 10SM CLR 23/08 A3007 RMK AO2 T02320083
KPVW 231755Z AUTO 00000KT 1 1/2SM HZ VV007 23/08 A3008 RMK AO2 VIS 1/2V5 T02300084 10232 20077
KPVW 231735Z AUTO 00000KT 10SM CLR 22/08 A3009 RMK AO2 T02240084
KPVW 231715Z AUTO 00000KT 10SM CLR 22/09 A3010 RMK AO2 T02180086
KPVW 231655Z AUTO 00000KT 10SM CLR 21/09 A3010 RMK AO2 T02120092
KPVW 231635Z AUTO 30003KT 10SM CLR 21/10 A3011 RMK AO2 T02070095
KPVW 231615Z AUTO 30003KT 10SM CLR 20/09 A3011 RMK AO2 T01970092
KPVW 231555Z AUTO 00000KT 10SM CLR 19/10 A3011 RMK AO2 T01860100
KPVW 231535Z AUTO 29003KT 10SM CLR 18/10 A3011 RMK AO2 T01770104
KPVW 231515Z AUTO 30003KT 10SM CLR 17/11 A3011 RMK AO2 T01690111
KPVW 231455Z AUTO 32004KT 10SM CLR 16/11 A3011 RMK AO2 T01550107
KPVW 231435Z AUTO 31004KT 10SM CLR 14/11 A3010 RMK AO2 T01430106
KPVW 231415Z AUTO 31006KT 10SM CLR 13/10 A3010 RMK AO2 T01270096
KPVW 231355Z AUTO 32005KT 10SM CLR 11/09 A3010 RMK AO2 T01140089
KPVW 231335Z AUTO 32006KT 10SM CLR 10/08 A3010 RMK AO2 T01020081
KPVW 231315Z AUTO 31005KT 10SM CLR 09/08 A3009 RMK AO2 T00910075
KPVW 231255Z AUTO 32006KT 10SM CLR 08/07 A3009 RMK AO2 T00800067
KPVW 231235Z AUTO 31005KT 10SM CLR 08/07 A3009 RMK AO2 T00790065
KPVW 231215Z AUTO 31005KT 10SM CLR 08/07 A3009 RMK AO2 T00800065
KPVW 231155Z AUTO 32005KT 10SM CLR 08/07 A3009 RMK AO2 T00780065 10114 20076
KPVW 231135Z AUTO 32006KT 10SM CLR 08/07 A3008 RMK AO2 T00790066
KPVW 231115Z AUTO 32006KT 10SM CLR 08/07 A3008 RMK AO2 T00770066
KPVW 231055Z AUTO 31006KT 10SM CLR 08/07 A3007 RMK AO2 T00780065
KPVW 231035Z AUTO 31006KT 10SM CLR 08/07 A3008 RMK AO2 T00780066
KPVW 231015Z AUTO 32005KT 10SM CLR 08/07 A3008 RMK AO2 T00780065
KPVW 230955Z AUTO 31006KT 10SM CLR 08/07 A3008 RMK AO2 T00790067
KPVW 230935Z AUTO 31006KT 10SM CLR 08/07 A3009 RMK AO2 T00800066
KPVW 230915Z AUTO 33003KT 10SM CLR 08/07 A3009 RMK AO2 T00800067
KPVW 230850Z AUTO 31003KT 10SM CLR 09/07 A3010 RMK AO2 T00880071
KPVW 230835Z AUTO 00000KT 10SM CLR 09/07 A3010 RMK AO2 T00900072
KPVW 230815Z AUTO 00000KT 10SM CLR 09/08 A3010 RMK AO2 T00930075
KPVW 230755Z AUTO 00000KT 10SM CLR 09/08 A3011 RMK AO2 T00940077
KPVW 230735Z AUTO 00000KT 10SM CLR 10/09 A3011 RMK AO2 T01000085
KPVW 230715Z AUTO 00000KT 10SM CLR 10/08 A3011 RMK AO2 T01030082
KPVW 230655Z AUTO 00000KT 10SM CLR 10/08 A3011 RMK AO2 T01030082
KPVW 230635Z AUTO 00000KT 10SM CLR 11/08 A3012 RMK AO2 T01070084
KPVW 230615Z AUTO 00000KT 10SM CLR 11/09 A3012 RMK AO2 T01090085
KPVW 230555Z AUTO 00000KT 10SM CLR 11/09 A3013 RMK AO2 T01110087 10216 20109 402370095
KPVW 230535Z AUTO 00000KT 10SM CLR 11/09 A3013 RMK AO2 T01110088
KPVW 230515Z AUTO 00000KT 10SM CLR 12/09 A3013 RMK AO2 T01180090
KPVW 230455Z AUTO 00000KT 10SM CLR 12/09 A3013 RMK AO2 T01220090
KPVW 230435Z AUTO 00000KT 10SM CLR 12/09 A3014 RMK AO2 T01240092
KPVW 230415Z AUTO 00000KT 10SM CLR 13/09 A3014 RMK AO2 T01280092
KPVW 230355Z AUTO 00000KT 10SM CLR 14/09 A3015 RMK AO2 T01430092
KPVW 230335Z AUTO 00000KT 10SM CLR 14/09 A3015 RMK AO2 T01370090
KPVW 230315Z AUTO 10004KT 10SM CLR 15/09 A3014 RMK AO2 T01480092
KPVW 230255Z AUTO 11005KT 10SM CLR 15/09 A3014 RMK AO2 T01480092
KPVW 230235Z AUTO 12004KT 10SM CLR 15/09 A3014 RMK AO2 T01500092
KPVW 230215Z AUTO 11004KT 10SM CLR 16/09 A3013 RMK AO2 T01560086
KPVW 230155Z AUTO 09005KT 10SM CLR 16/08 A3013 RMK AO2 T01570084
KPVW 230135Z AUTO 09004KT 10SM CLR 15/09 A3013 RMK AO2 T01540086
KPVW 230115Z AUTO 09006KT 10SM CLR 16/09 A3013 RMK AO2 T01590085
KPVW 230055Z AUTO 09006KT 10SM CLR 17/08 A3013 RMK AO2 T01670084
KPVW 230035Z AUTO 10006KT 10SM CLR 19/08 A3013 RMK AO2 T01860076
KPVW 230015Z AUTO 08006KT 10SM CLR 21/07 A3012 RMK AO2 T02070066
KPVW 222355Z AUTO 08009KT 10SM CLR 22/07 A3011 RMK AO2 T02170066 10237 20211
KPVW 222335Z AUTO 07008KT 10SM CLR 22/06 A3011 RMK AO2 T02240063
KPVW 222315Z AUTO 05007KT 10SM CLR 23/06 A3011 RMK AO2 T02270058
KPVW 222255Z AUTO 06010KT 10SM CLR 23/06 A3011 RMK AO2 T02310062
KPVW 222235Z AUTO 06008KT 7SM CLR 24/06 A3011 RMK AO2 T02350056
KPVW 222215Z AUTO 07007KT 10SM CLR 24/06 A3012 RMK AO2 T02350064
KPVW 222155Z AUTO 03009KT 10SM CLR 24/06 A3012 RMK AO2 T02360055
KPVW 222135Z AUTO 06009KT 10SM CLR 24/05 A3012 RMK AO2 T02360052
KPVW 222115Z AUTO 05007KT 10SM CLR 23/06 A3013 RMK AO2 T02340061
KPVW 222055Z AUTO 01007G16KT 10SM CLR 23/06 A3013 RMK AO2 T02320061
KPVW 222035Z AUTO 01008KT 10SM CLR 23/05 A3014 RMK AO2 T02260051
KPVW 222015Z AUTO 03008G14KT 10SM CLR 23/05 A3015 RMK AO2 T02260048
KPVW 221955Z AUTO 02011G16KT 10SM CLR 22/04 A3016 RMK AO2 T02240042
KPVW 221935Z AUTO 01011G15KT 10SM CLR 22/04 A3017 RMK AO2 T02240036
KPVW 221915Z AUTO 02012G16KT 10SM CLR 22/02 A3018 RMK AO2 T02230021
KPVW 221855Z AUTO 05010KT 10SM CLR 22/03 A3019 RMK AO2 T02220026
KPVW 221835Z AUTO 01011G16KT 10SM CLR 22/04 A3020 RMK AO2 T02180038
KPVW 221815Z AUTO 03011G16KT 10SM CLR 21/05 A3020 RMK AO2 T02140054
KPVW 221755Z AUTO 36013G18KT 10SM CLR 21/06 A3020 RMK AO2 T02120058 10212 20095
KPVW 221735Z AUTO 02011G14KT 10SM CLR 21/07 A3021 RMK AO2 T02080066
KPVW 221715Z AUTO 36011KT 10SM CLR 20/06 A3022 RMK AO2 T01980062
KPVW 221655Z AUTO 35010G18KT 10SM CLR 19/07 A3022 RMK AO2 T01940067
KPVW 221635Z AUTO 01014G18KT 10SM CLR 18/05 A3023 RMK AO2 T01830054
KPVW 221615Z AUTO 01013KT 10SM CLR 17/06 A3023 RMK AO2 T01730063
KPVW 221555Z AUTO 01012G18KT 10SM CLR 16/06 A3023 RMK AO2 T01620063
KPVW 221535Z AUTO 36014KT 10SM CLR 15/06 A3023 RMK AO2 T01510061
KPVW 221515Z AUTO 36013G16KT 10SM CLR 14/07 A3023 RMK AO2 T01430068
KPVW 221455Z AUTO 01013KT 10SM CLR 13/06 A3023 RMK AO2 T01320061
KPVW 221435Z AUTO 02012KT 10SM CLR 13/06 A3024 RMK AO2 T01270060